sensor_id;sensor_type;location;lat;lon;timestamp;temperature;humidity
70593;DHT22;58294;42.988;20.338;2023-09-19T00:01:33;486.70;2380.80
70593;DHT22;58294;42.988;20.338;2023-09-19T00:03:59;486.70;2380.80
70593;DHT22;58294;42.988;20.338;2023-09-19T00:06:29;486.70;2380.80
70593;DHT22;58294;42.988;20.338;2023-09-19T00:08:57;486.70;2380.80
70593;DHT22;58294;42.988;20.338;2023-09-19T00:11:24;486.70;2380.80
70593;DHT22;58294;42.988;20.338;2023-09-19T00:13:52;486.70;2380.80
70593;DHT22;58294;42.988;20.338;2023-09-19T00:16:18;486.70;2380.80
70593;DHT22;58294;42.988;20.338;2023-09-19T00:18:45;486.70;2380.80
70593;DHT22;58294;42.988;20.338;2023-09-19T00:21:10;486.60;2380.80
70593;DHT22;58294;42.988;20.338;2023-09-19T00:23:37;486.60;2380.80
70593;DHT22;58294;42.988;20.338;2023-09-19T00:26:02;486.60;2380.80
70593;DHT22;58294;42.988;20.338;2023-09-19T00:28:29;486.60;2380.80
70593;DHT22;58294;42.988;20.338;2023-09-19T00:30:55;486.50;2380.80
70593;DHT22;58294;42.988;20.338;2023-09-19T00:33:22;486.50;2380.80
70593;DHT22;58294;42.988;20.338;2023-09-19T00:35:49;486.50;2380.80
70593;DHT22;58294;42.988;20.338;2023-09-19T00:38:15;486.50;2380.80
70593;DHT22;58294;42.988;20.338;2023-09-19T00:40:46;486.40;2380.80
70593;DHT22;58294;42.988;20.338;2023-09-19T00:43:12;486.40;2380.80
70593;DHT22;58294;42.988;20.338;2023-09-19T00:45:39;486.40;2380.80
70593;DHT22;58294;42.988;20.338;2023-09-19T00:48:08;486.40;2380.80
70593;DHT22;58294;42.988;20.338;2023-09-19T00:50:35;486.40;2380.80
70593;DHT22;58294;42.988;20.338;2023-09-19T00:53:02;461.70;2380.80
70593;DHT22;58294;42.988;20.338;2023-09-19T00:55:39;486.40;2380.80
70593;DHT22;58294;42.988;20.338;2023-09-19T00:58:06;461.70;2380.80
70593;DHT22;58294;42.988;20.338;2023-09-19T01:00:33;461.70;2380.80
70593;DHT22;58294;42.988;20.338;2023-09-19T01:03:02;486.40;2380.80
70593;DHT22;58294;42.988;20.338;2023-09-19T01:05:29;461.70;2380.80
70593;DHT22;58294;42.988;20.338;2023-09-19T01:07:57;461.70;2380.80
70593;DHT22;58294;42.988;20.338;2023-09-19T01:10:24;461.70;2380.80
70593;DHT22;58294;42.988;20.338;2023-09-19T01:13:05;461.70;2380.80
70593;DHT22;58294;42.988;20.338;2023-09-19T01:15:51;461.70;2380.80
70593;DHT22;58294;42.988;20.338;2023-09-19T01:24:33;461.70;2380.80
70593;DHT22;58294;42.988;20.338;2023-09-19T01:29:39;461.70;2380.80
70593;DHT22;58294;42.988;20.338;2023-09-19T01:32:08;461.70;2380.80
70593;DHT22;58294;42.988;20.338;2023-09-19T01:34:46;461.60;2380.80
70593;DHT22;58294;42.988;20.338;2023-09-19T01:37:16;461.60;2380.80
70593;DHT22;58294;42.988;20.338;2023-09-19T01:39:55;461.60;2380.80
70593;DHT22;58294;42.988;20.338;2023-09-19T01:45:24;461.60;2380.80
70593;DHT22;58294;42.988;20.338;2023-09-19T01:47:52;461.60;2380.80
70593;DHT22;58294;42.988;20.338;2023-09-19T01:53:27;461.60;2380.80
70593;DHT22;58294;42.988;20.338;2023-09-19T01:55:54;461.70;2380.80
70593;DHT22;58294;42.988;20.338;2023-09-19T02:00:56;461.60;2380.80
70593;DHT22;58294;42.988;20.338;2023-09-19T02:03:24;461.60;2380.80
70593;DHT22;58294;42.988;20.338;2023-09-19T02:05:53;461.60;2380.80
70593;DHT22;58294;42.988;20.338;2023-09-19T02:08:21;461.60;2380.80
70593;DHT22;58294;42.988;20.338;2023-09-19T02:10:49;461.50;2380.80
70593;DHT22;58294;42.988;20.338;2023-09-19T02:13:19;461.50;2380.80
70593;DHT22;58294;42.988;20.338;2023-09-19T02:15:46;461.50;2380.80
70593;DHT22;58294;42.988;20.338;2023-09-19T02:18:12;461.50;2380.80
70593;DHT22;58294;42.988;20.338;2023-09-19T02:20:42;461.50;2380.80
70593;DHT22;58294;42.988;20.338;2023-09-19T02:23:09;461.50;2380.80
70593;DHT22;58294;42.988;20.338;2023-09-19T02:25:36;461.50;2380.80
70593;DHT22;58294;42.988;20.338;2023-09-19T02:28:03;461.50;2380.80
70593;DHT22;58294;42.988;20.338;2023-09-19T02:30:29;461.50;2380.80
70593;DHT22;58294;42.988;20.338;2023-09-19T02:32:55;461.50;2380.80
70593;DHT22;58294;42.988;20.338;2023-09-19T02:35:22;461.50;2380.80
70593;DHT22;58294;42.988;20.338;2023-09-19T02:37:48;461.50;2380.80
70593;DHT22;58294;42.988;20.338;2023-09-19T02:40:14;461.50;2380.80
70593;DHT22;58294;42.988;20.338;2023-09-19T02:42:55;461.50;2380.80
70593;DHT22;58294;42.988;20.338;2023-09-19T02:45:21;461.50;2380.80
70593;DHT22;58294;42.988;20.338;2023-09-19T02:47:48;461.50;2380.80
70593;DHT22;58294;42.988;20.338;2023-09-19T02:50:14;461.50;2380.80
70593;DHT22;58294;42.988;20.338;2023-09-19T02:52:42;461.40;2380.80
70593;DHT22;58294;42.988;20.338;2023-09-19T02:55:15;461.40;2380.80
70593;DHT22;58294;42.988;20.338;2023-09-19T02:57:46;461.50;2380.80
70593;DHT22;58294;42.988;20.338;2023-09-19T03:00:12;461.50;2380.80
70593;DHT22;58294;42.988;20.338;2023-09-19T03:02:38;461.50;2380.80
70593;DHT22;58294;42.988;20.338;2023-09-19T03:05:07;461.50;2380.80
70593;DHT22;58294;42.988;20.338;2023-09-19T03:07:33;461.50;2380.80
70593;DHT22;58294;42.988;20.338;2023-09-19T03:09:59;461.50;2380.80
70593;DHT22;58294;42.988;20.338;2023-09-19T03:12:26;461.50;2380.80
70593;DHT22;58294;42.988;20.338;2023-09-19T03:14:52;461.50;2380.80
70593;DHT22;58294;42.988;20.338;2023-09-19T03:17:18;461.60;2380.80
70593;DHT22;58294;42.988;20.338;2023-09-19T03:19:45;461.60;2380.80
70593;DHT22;58294;42.988;20.338;2023-09-19T03:22:29;461.70;2380.80
70593;DHT22;58294;42.988;20.338;2023-09-19T03:24:55;461.70;2380.80
70593;DHT22;58294;42.988;20.338;2023-09-19T03:27:20;461.70;2380.80
70593;DHT22;58294;42.988;20.338;2023-09-19T03:29:47;461.70;2380.80
70593;DHT22;58294;42.988;20.338;2023-09-19T03:32:13;461.70;2380.80
70593;DHT22;58294;42.988;20.338;2023-09-19T03:34:39;461.60;2380.80
70593;DHT22;58294;42.988;20.338;2023-09-19T03:37:09;461.60;2380.80
70593;DHT22;58294;42.988;20.338;2023-09-19T03:39:35;461.60;2380.80
70593;DHT22;58294;42.988;20.338;2023-09-19T03:42:01;461.70;2380.80
70593;DHT22;58294;42.988;20.338;2023-09-19T03:44:30;461.70;2380.80
70593;DHT22;58294;42.988;20.338;2023-09-19T03:46:56;461.60;2380.80
70593;DHT22;58294;42.988;20.338;2023-09-19T03:49:22;461.60;2380.80
70593;DHT22;58294;42.988;20.338;2023-09-19T03:51:48;461.60;2380.80
70593;DHT22;58294;42.988;20.338;2023-09-19T03:54:14;461.60;2380.80
70593;DHT22;58294;42.988;20.338;2023-09-19T03:56:40;461.60;2380.80
70593;DHT22;58294;42.988;20.338;2023-09-19T03:59:06;461.60;2380.80
70593;DHT22;58294;42.988;20.338;2023-09-19T04:01:34;461.60;2380.80
70593;DHT22;58294;42.988;20.338;2023-09-19T04:03:59;461.60;2380.80
70593;DHT22;58294;42.988;20.338;2023-09-19T04:06:34;461.50;2380.80
70593;DHT22;58294;42.988;20.338;2023-09-19T04:09:01;461.50;2380.80
70593;DHT22;58294;42.988;20.338;2023-09-19T04:11:27;461.50;2380.80
70593;DHT22;58294;42.988;20.338;2023-09-19T04:13:53;461.50;2380.80
70593;DHT22;58294;42.988;20.338;2023-09-19T04:16:19;461.50;2380.80
70593;DHT22;58294;42.988;20.338;2023-09-19T04:18:45;461.50;2380.80
70593;DHT22;58294;42.988;20.338;2023-09-19T04:21:11;461.50;2380.80
70593;DHT22;58294;42.988;20.338;2023-09-19T04:23:36;461.40;2380.80
70593;DHT22;58294;42.988;20.338;2023-09-19T04:26:02;461.40;2380.80
70593;DHT22;58294;42.988;20.338;2023-09-19T04:28:30;461.40;2380.80
70593;DHT22;58294;42.988;20.338;2023-09-19T04:30:57;461.40;2380.80
70593;DHT22;58294;42.988;20.338;2023-09-19T04:33:25;461.40;2380.80
70593;DHT22;58294;42.988;20.338;2023-09-19T04:35:53;461.40;2380.80
70593;DHT22;58294;42.988;20.338;2023-09-19T04:38:19;461.40;2380.80
70593;DHT22;58294;42.988;20.338;2023-09-19T04:40:46;461.50;2380.80
70593;DHT22;58294;42.988;20.338;2023-09-19T04:43:11;461.50;2380.80
70593;DHT22;58294;42.988;20.338;2023-09-19T04:45:38;461.50;2380.80
70593;DHT22;58294;42.988;20.338;2023-09-19T04:48:05;461.50;2380.80
70593;DHT22;58294;42.988;20.338;2023-09-19T04:50:34;461.50;2380.80
70593;DHT22;58294;42.988;20.338;2023-09-19T04:53:00;461.50;2380.80
70593;DHT22;58294;42.988;20.338;2023-09-19T04:55:27;461.50;2380.80
70593;DHT22;58294;42.988;20.338;2023-09-19T04:57:53;461.50;2380.80
70593;DHT22;58294;42.988;20.338;2023-09-19T05:00:23;461.50;2380.80
70593;DHT22;58294;42.988;20.338;2023-09-19T05:02:55;461.50;2380.80
70593;DHT22;58294;42.988;20.338;2023-09-19T05:05:22;461.50;2380.80
70593;DHT22;58294;42.988;20.338;2023-09-19T05:07:49;461.50;2380.80
70593;DHT22;58294;42.988;20.338;2023-09-19T05:10:16;461.50;2380.80
70593;DHT22;58294;42.988;20.338;2023-09-19T05:12:44;461.40;2380.80
70593;DHT22;58294;42.988;20.338;2023-09-19T05:15:14;461.50;2380.80
70593;DHT22;58294;42.988;20.338;2023-09-19T05:17:51;461.50;2380.80
70593;DHT22;58294;42.988;20.338;2023-09-19T05:20:17;461.50;2380.80
70593;DHT22;58294;42.988;20.338;2023-09-19T05:23:01;461.50;2380.80
70593;DHT22;58294;42.988;20.338;2023-09-19T05:25:31;461.60;2380.80
70593;DHT22;58294;42.988;20.338;2023-09-19T05:27:58;461.60;2380.80
70593;DHT22;58294;42.988;20.338;2023-09-19T05:30:25;461.60;2380.80
70593;DHT22;58294;42.988;20.338;2023-09-19T05:32:53;461.50;2380.80
70593;DHT22;58294;42.988;20.338;2023-09-19T05:35:20;461.50;2380.80
70593;DHT22;58294;42.988;20.338;2023-09-19T05:37:48;461.50;2380.80
70593;DHT22;58294;42.988;20.338;2023-09-19T05:40:17;461.60;2380.80
70593;DHT22;58294;42.988;20.338;2023-09-19T05:42:43;461.60;2380.80
70593;DHT22;58294;42.988;20.338;2023-09-19T05:45:10;461.60;2380.80
70593;DHT22;58294;42.988;20.338;2023-09-19T05:47:42;461.70;2380.80
70593;DHT22;58294;42.988;20.338;2023-09-19T05:50:12;461.70;2380.80
70593;DHT22;58294;42.988;20.338;2023-09-19T05:52:38;461.70;2380.80
70593;DHT22;58294;42.988;20.338;2023-09-19T05:55:05;461.70;2380.80
70593;DHT22;58294;42.988;20.338;2023-09-19T05:57:35;461.70;2380.80
70593;DHT22;58294;42.988;20.338;2023-09-19T06:00:01;486.40;2380.80
70593;DHT22;58294;42.988;20.338;2023-09-19T06:02:27;486.40;2380.80
70593;DHT22;58294;42.988;20.338;2023-09-19T06:04:55;486.40;2380.80
70593;DHT22;58294;42.988;20.338;2023-09-19T06:07:22;486.40;2380.80
70593;DHT22;58294;42.988;20.338;2023-09-19T06:09:52;486.40;2380.80
70593;DHT22;58294;42.988;20.338;2023-09-19T06:12:19;486.40;2380.80
70593;DHT22;58294;42.988;20.338;2023-09-19T06:14:45;486.50;2380.80
70593;DHT22;58294;42.988;20.338;2023-09-19T06:17:11;486.50;2380.80
70593;DHT22;58294;42.988;20.338;2023-09-19T06:19:37;486.60;2380.80
70593;DHT22;58294;42.988;20.338;2023-09-19T06:22:03;486.60;2380.80
70593;DHT22;58294;42.988;20.338;2023-09-19T06:24:29;486.70;2380.80
70593;DHT22;58294;42.988;20.338;2023-09-19T06:26:55;486.70;2380.80
70593;DHT22;58294;42.988;20.338;2023-09-19T06:29:20;486.70;2380.80
70593;DHT22;58294;42.988;20.338;2023-09-19T06:31:48;486.60;2380.80
70593;DHT22;58294;42.988;20.338;2023-09-19T06:34:14;486.60;2380.80
70593;DHT22;58294;42.988;20.338;2023-09-19T06:36:43;486.70;2380.80
70593;DHT22;58294;42.988;20.338;2023-09-19T06:39:10;486.80;2380.80
70593;DHT22;58294;42.988;20.338;2023-09-19T06:41:37;486.90;2380.80
70593;DHT22;58294;42.988;20.338;2023-09-19T06:44:05;487.00;2380.80
70593;DHT22;58294;42.988;20.338;2023-09-19T06:46:31;487.10;2380.80
70593;DHT22;58294;42.988;20.338;2023-09-19T06:49:01;487.20;2380.80
70593;DHT22;58294;42.988;20.338;2023-09-19T06:51:32;487.20;2380.80
70593;DHT22;58294;42.988;20.338;2023-09-19T06:54:01;512.00;2380.80
70593;DHT22;58294;42.988;20.338;2023-09-19T06:56:27;512.00;2380.80
70593;DHT22;58294;42.988;20.338;2023-09-19T06:58:53;512.10;2380.80
70593;DHT22;58294;42.988;20.338;2023-09-19T07:01:18;512.30;2380.80
70593;DHT22;58294;42.988;20.338;2023-09-19T07:03:44;512.30;2380.80
70593;DHT22;58294;42.988;20.338;2023-09-19T07:06:11;512.40;2380.80
70593;DHT22;58294;42.988;20.338;2023-09-19T07:08:37;512.40;2380.80
70593;DHT22;58294;42.988;20.338;2023-09-19T07:11:04;512.40;2380.80
70593;DHT22;58294;42.988;20.338;2023-09-19T07:13:31;512.40;2380.80
70593;DHT22;58294;42.988;20.338;2023-09-19T07:15:58;512.40;2380.80
70593;DHT22;58294;42.988;20.338;2023-09-19T07:18:25;512.40;2380.80
70593;DHT22;58294;42.988;20.338;2023-09-19T07:20:51;512.40;2380.80
70593;DHT22;58294;42.988;20.338;2023-09-19T07:23:26;512.40;2380.80
70593;DHT22;58294;42.988;20.338;2023-09-19T07:25:56;512.40;2380.80
70593;DHT22;58294;42.988;20.338;2023-09-19T07:50:39;512.20;2380.80
70593;DHT22;58294;42.988;20.338;2023-09-19T07:53:05;537.70;2406.40
70593;DHT22;58294;42.988;20.338;2023-09-19T07:55:31;537.70;2406.40
70593;DHT22;58294;42.988;20.338;2023-09-19T07:58:00;537.80;2406.40
70593;DHT22;58294;42.988;20.338;2023-09-19T08:00:26;537.80;2406.40
70593;DHT22;58294;42.988;20.338;2023-09-19T08:02:52;538.00;2406.40
70593;DHT22;58294;42.988;20.338;2023-09-19T08:05:18;538.20;2406.40
70593;DHT22;58294;42.988;20.338;2023-09-19T08:07:45;538.30;2406.40
70593;DHT22;58294;42.988;20.338;2023-09-19T08:10:14;538.40;2406.40
70593;DHT22;58294;42.988;20.338;2023-09-19T08:12:42;538.50;2406.40
70593;DHT22;58294;42.988;20.338;2023-09-19T08:15:19;538.50;2380.80
70593;DHT22;58294;42.988;20.338;2023-09-19T08:17:46;563.20;2355.20
70593;DHT22;58294;42.988;20.338;2023-09-19T08:20:12;563.20;2355.20
70593;DHT22;58294;42.988;20.338;2023-09-19T08:22:48;563.20;2355.20
70593;DHT22;58294;42.988;20.338;2023-09-19T08:25:15;563.30;2432.00
70593;DHT22;58294;42.988;20.338;2023-09-19T08:27:45;563.30;2432.00
70593;DHT22;58294;42.988;20.338;2023-09-19T08:52:39;589.40;2252.80
70593;DHT22;58294;42.988;20.338;2023-09-19T09:00:02;614.40;2124.80
70593;DHT22;58294;42.988;20.338;2023-09-19T09:02:40;614.40;2176.00
70593;DHT22;58294;42.988;20.338;2023-09-19T09:05:09;614.50;2150.40
70593;DHT22;58294;42.988;20.338;2023-09-19T09:07:38;614.60;2150.40
70593;DHT22;58294;42.988;20.338;2023-09-19T09:10:04;614.70;2150.40
70593;DHT22;58294;42.988;20.338;2023-09-19T09:12:30;614.80;2099.20
70593;DHT22;58294;42.988;20.338;2023-09-19T09:14:56;614.90;2048.00
70593;DHT22;58294;42.988;20.338;2023-09-19T09:17:26;615.10;2073.60
70593;DHT22;58294;42.988;20.338;2023-09-19T09:19:53;615.10;1996.80
70593;DHT22;58294;42.988;20.338;2023-09-19T09:22:19;615.30;1945.60
70593;DHT22;58294;42.988;20.338;2023-09-19T09:24:54;615.30;1894.40
70593;DHT22;58294;42.988;20.338;2023-09-19T09:27:24;640.00;1971.20
70593;DHT22;58294;42.988;20.338;2023-09-19T09:29:51;640.10;1868.80
70593;DHT22;58294;42.988;20.338;2023-09-19T09:34:54;640.30;1920.00
70593;DHT22;58294;42.988;20.338;2023-09-19T09:37:21;640.30;1894.40
70593;DHT22;58294;42.988;20.338;2023-09-19T09:39:54;640.50;1868.80
70593;DHT22;58294;42.988;20.338;2023-09-19T09:42:35;640.70;1868.80
70593;DHT22;58294;42.988;20.338;2023-09-19T09:47:44;665.60;1817.60
70593;DHT22;58294;42.988;20.338;2023-09-19T09:52:59;665.80;1766.40
70593;DHT22;58294;42.988;20.338;2023-09-19T09:56:07;666.00;1664.00
70593;DHT22;58294;42.988;20.338;2023-09-19T09:58:37;691.20;1689.60
70593;DHT22;58294;42.988;20.338;2023-09-19T10:01:06;691.50;1868.80
70593;DHT22;58294;42.988;20.338;2023-09-19T10:03:38;691.90;1715.20
70593;DHT22;58294;42.988;20.338;2023-09-19T10:06:07;716.90;1715.20
70593;DHT22;58294;42.988;20.338;2023-09-19T10:08:58;717.50;1740.80
70593;DHT22;58294;42.988;20.338;2023-09-19T10:11:47;742.80;1843.20
70593;DHT22;58294;42.988;20.338;2023-09-19T10:14:17;743.20;1587.20
70593;DHT22;58294;42.988;20.338;2023-09-19T10:16:49;768.20;1484.80
70593;DHT22;58294;42.988;20.338;2023-09-19T10:19:23;768.50;1408.00
70593;DHT22;58294;42.988;20.338;2023-09-19T10:32:26;768.50;1356.80
70593;DHT22;58294;42.988;20.338;2023-09-19T10:34:54;819.30;1254.40
70593;DHT22;58294;42.988;20.338;2023-09-19T10:37:22;819.40;1152.00
70593;DHT22;58294;42.988;20.338;2023-09-19T10:39:52;819.90;1228.80
70593;DHT22;58294;42.988;20.338;2023-09-19T10:42:22;819.90;1100.80
70593;DHT22;58294;42.988;20.338;2023-09-19T10:44:52;844.80;1075.20
70593;DHT22;58294;42.988;20.338;2023-09-19T10:47:23;819.90;998.40
70593;DHT22;58294;42.988;20.338;2023-09-19T10:49:49;819.90;1049.60
70593;DHT22;58294;42.988;20.338;2023-09-19T10:52:19;819.90;1075.20
70593;DHT22;58294;42.988;20.338;2023-09-19T10:54:54;844.80;1177.60
70593;DHT22;58294;42.988;20.338;2023-09-19T10:57:23;819.90;1100.80
70593;DHT22;58294;42.988;20.338;2023-09-19T11:00:08;819.90;1100.80
70593;DHT22;58294;42.988;20.338;2023-09-19T11:08:07;870.40;1152.00
70593;DHT22;58294;42.988;20.338;2023-09-19T11:10:48;870.50;972.80
70593;DHT22;58294;42.988;20.338;2023-09-19T11:13:27;870.40;1024.00
70593;DHT22;58294;42.988;20.338;2023-09-19T11:26:49;870.40;1075.20
70593;DHT22;58294;42.988;20.338;2023-09-19T11:29:29;870.50;972.80
70593;DHT22;58294;42.988;20.338;2023-09-19T11:31:56;845.60;998.40
70593;DHT22;58294;42.988;20.338;2023-09-19T11:40:09;820.10;998.40
70593;DHT22;58294;42.988;20.338;2023-09-19T11:42:48;819.70;1024.00
70593;DHT22;58294;42.988;20.338;2023-09-19T11:48:13;819.20;1049.60
70593;DHT22;58294;42.988;20.338;2023-09-19T11:50:42;794.40;1075.20
70593;DHT22;58294;42.988;20.338;2023-09-19T11:53:13;794.30;1100.80
70593;DHT22;58294;42.988;20.338;2023-09-19T11:55:43;794.40;1100.80
70593;DHT22;58294;42.988;20.338;2023-09-19T11:58:09;794.40;1100.80
70593;DHT22;58294;42.988;20.338;2023-09-19T12:00:39;819.30;1126.40
70593;DHT22;58294;42.988;20.338;2023-09-19T12:03:11;819.90;1203.20
70593;DHT22;58294;42.988;20.338;2023-09-19T12:05:37;845.00;1075.20
70593;DHT22;58294;42.988;20.338;2023-09-19T12:10:43;845.50;998.40
70593;DHT22;58294;42.988;20.338;2023-09-19T12:13:09;845.40;947.20
70593;DHT22;58294;42.988;20.338;2023-09-19T12:15:39;845.10;947.20
70593;DHT22;58294;42.988;20.338;2023-09-19T12:18:08;844.80;947.20
70593;DHT22;58294;42.988;20.338;2023-09-19T12:20:44;844.80;921.60
70593;DHT22;58294;42.988;20.338;2023-09-19T12:23:15;819.90;947.20
70593;DHT22;58294;42.988;20.338;2023-09-19T12:25:42;819.90;947.20
70593;DHT22;58294;42.988;20.338;2023-09-19T12:28:12;819.70;947.20
70593;DHT22;58294;42.988;20.338;2023-09-19T12:30:38;819.70;972.80
70593;DHT22;58294;42.988;20.338;2023-09-19T12:33:18;819.60;972.80
70593;DHT22;58294;42.988;20.338;2023-09-19T12:35:50;819.60;998.40
70593;DHT22;58294;42.988;20.338;2023-09-19T12:38:25;819.40;972.80
70593;DHT22;58294;42.988;20.338;2023-09-19T12:40:55;819.40;972.80
70593;DHT22;58294;42.988;20.338;2023-09-19T12:43:22;819.40;947.20
70593;DHT22;58294;42.988;20.338;2023-09-19T12:45:48;819.40;947.20
70593;DHT22;58294;42.988;20.338;2023-09-19T12:48:25;819.30;972.80
70593;DHT22;58294;42.988;20.338;2023-09-19T12:51:08;819.20;998.40
70593;DHT22;58294;42.988;20.338;2023-09-19T12:53:57;794.40;972.80
70593;DHT22;58294;42.988;20.338;2023-09-19T12:56:23;794.30;947.20
70593;DHT22;58294;42.988;20.338;2023-09-19T12:58:53;794.20;972.80
70593;DHT22;58294;42.988;20.338;2023-09-19T13:01:23;794.20;972.80
70593;DHT22;58294;42.988;20.338;2023-09-19T13:06:44;794.10;972.80
70593;DHT22;58294;42.988;20.338;2023-09-19T13:09:11;794.00;972.80
70593;DHT22;58294;42.988;20.338;2023-09-19T13:11:38;793.90;972.80
70593;DHT22;58294;42.988;20.338;2023-09-19T13:14:21;793.90;972.80
70593;DHT22;58294;42.988;20.338;2023-09-19T13:17:00;793.60;1024.00
70593;DHT22;58294;42.988;20.338;2023-09-19T13:19:43;768.70;1049.60
70593;DHT22;58294;42.988;20.338;2023-09-19T13:25:01;768.50;1075.20
70593;DHT22;58294;42.988;20.338;2023-09-19T13:27:29;768.10;1152.00
70593;DHT22;58294;42.988;20.338;2023-09-19T13:29:55;743.20;1177.60
70593;DHT22;58294;42.988;20.338;2023-09-19T13:32:21;743.00;1177.60
70593;DHT22;58294;42.988;20.338;2023-09-19T13:34:47;742.90;1203.20
70593;DHT22;58294;42.988;20.338;2023-09-19T13:37:14;742.70;1228.80
70593;DHT22;58294;42.988;20.338;2023-09-19T13:39:41;742.60;1254.40
70593;DHT22;58294;42.988;20.338;2023-09-19T13:42:13;742.50;1280.00
70593;DHT22;58294;42.988;20.338;2023-09-19T13:44:39;742.50;1280.00
70593;DHT22;58294;42.988;20.338;2023-09-19T13:47:06;742.50;1280.00
70593;DHT22;58294;42.988;20.338;2023-09-19T13:49:38;742.50;1305.60
70593;DHT22;58294;42.988;20.338;2023-09-19T13:52:04;742.50;1305.60
70593;DHT22;58294;42.988;20.338;2023-09-19T13:54:30;742.50;1305.60
70593;DHT22;58294;42.988;20.338;2023-09-19T13:56:56;742.50;1331.20
70593;DHT22;58294;42.988;20.338;2023-09-19T13:59:22;742.50;1305.60
70593;DHT22;58294;42.988;20.338;2023-09-19T14:01:51;717.70;1280.00
70593;DHT22;58294;42.988;20.338;2023-09-19T14:04:19;717.70;1305.60
70593;DHT22;58294;42.988;20.338;2023-09-19T14:06:47;717.60;1280.00
70593;DHT22;58294;42.988;20.338;2023-09-19T14:09:13;717.60;1305.60
70593;DHT22;58294;42.988;20.338;2023-09-19T14:11:39;717.60;1280.00
70593;DHT22;58294;42.988;20.338;2023-09-19T14:14:05;717.40;1280.00
70593;DHT22;58294;42.988;20.338;2023-09-19T14:16:33;717.20;1254.40
70593;DHT22;58294;42.988;20.338;2023-09-19T14:18:59;717.00;1254.40
70593;DHT22;58294;42.988;20.338;2023-09-19T14:21:25;716.80;1228.80
70593;DHT22;58294;42.988;20.338;2023-09-19T14:23:51;691.90;1228.80
70593;DHT22;58294;42.988;20.338;2023-09-19T14:26:17;691.70;1228.80
70593;DHT22;58294;42.988;20.338;2023-09-19T14:28:44;691.40;1254.40
70593;DHT22;58294;42.988;20.338;2023-09-19T14:31:11;691.20;1280.00
70593;DHT22;58294;42.988;20.338;2023-09-19T14:33:37;666.40;1280.00
70593;DHT22;58294;42.988;20.338;2023-09-19T14:36:05;666.30;1305.60
70593;DHT22;58294;42.988;20.338;2023-09-19T14:38:33;666.30;1305.60
70593;DHT22;58294;42.988;20.338;2023-09-19T14:41:03;666.20;1305.60
70593;DHT22;58294;42.988;20.338;2023-09-19T14:43:29;666.10;1280.00
70593;DHT22;58294;42.988;20.338;2023-09-19T14:46:08;666.00;1305.60
70593;DHT22;58294;42.988;20.338;2023-09-19T14:48:35;666.00;1305.60
70593;DHT22;58294;42.988;20.338;2023-09-19T14:51:05;666.00;1305.60
70593;DHT22;58294;42.988;20.338;2023-09-19T14:53:32;666.00;1331.20
70593;DHT22;58294;42.988;20.338;2023-09-19T14:56:04;665.80;1331.20
70593;DHT22;58294;42.988;20.338;2023-09-19T14:58:33;665.80;1331.20
70593;DHT22;58294;42.988;20.338;2023-09-19T15:01:06;665.80;1331.20
70593;DHT22;58294;42.988;20.338;2023-09-19T15:03:32;665.70;1331.20
70593;DHT22;58294;42.988;20.338;2023-09-19T15:06:05;665.70;1356.80
70593;DHT22;58294;42.988;20.338;2023-09-19T15:08:36;665.70;1382.40
70593;DHT22;58294;42.988;20.338;2023-09-19T15:11:04;665.60;1382.40
70593;DHT22;58294;42.988;20.338;2023-09-19T15:13:34;665.60;1382.40
70593;DHT22;58294;42.988;20.338;2023-09-19T15:16:04;665.60;1382.40
70593;DHT22;58294;42.988;20.338;2023-09-19T15:18:35;665.60;1408.00
70593;DHT22;58294;42.988;20.338;2023-09-19T15:21:04;665.70;1408.00
70593;DHT22;58294;42.988;20.338;2023-09-19T15:23:33;665.70;1408.00
70593;DHT22;58294;42.988;20.338;2023-09-19T15:26:06;665.70;1382.40
70593;DHT22;58294;42.988;20.338;2023-09-19T15:28:33;665.70;1382.40
70593;DHT22;58294;42.988;20.338;2023-09-19T15:31:04;665.60;1408.00
70593;DHT22;58294;42.988;20.338;2023-09-19T15:33:31;665.60;1408.00
70593;DHT22;58294;42.988;20.338;2023-09-19T15:38:32;640.80;1356.80
70593;DHT22;58294;42.988;20.338;2023-09-19T15:41:22;640.80;1356.80
70593;DHT22;58294;42.988;20.338;2023-09-19T15:43:47;640.70;1356.80
70593;DHT22;58294;42.988;20.338;2023-09-19T15:46:13;640.70;1356.80
70593;DHT22;58294;42.988;20.338;2023-09-19T15:48:41;640.70;1356.80
70593;DHT22;58294;42.988;20.338;2023-09-19T15:51:06;640.70;1356.80
70593;DHT22;58294;42.988;20.338;2023-09-19T15:53:49;640.70;1356.80
70593;DHT22;58294;42.988;20.338;2023-09-19T15:56:16;640.70;1356.80
70593;DHT22;58294;42.988;20.338;2023-09-19T15:58:45;640.70;1382.40
70593;DHT22;58294;42.988;20.338;2023-09-19T16:01:12;640.70;1356.80
70593;DHT22;58294;42.988;20.338;2023-09-19T16:03:39;640.60;1382.40
70593;DHT22;58294;42.988;20.338;2023-09-19T16:06:09;640.60;1382.40
70593;DHT22;58294;42.988;20.338;2023-09-19T16:08:40;640.50;1408.00
70593;DHT22;58294;42.988;20.338;2023-09-19T16:11:05;640.40;1433.60
70593;DHT22;58294;42.988;20.338;2023-09-19T16:13:31;640.40;1433.60
70593;DHT22;58294;42.988;20.338;2023-09-19T16:15:57;640.30;1433.60
70593;DHT22;58294;42.988;20.338;2023-09-19T16:18:23;640.20;1433.60
70593;DHT22;58294;42.988;20.338;2023-09-19T16:20:49;640.20;1433.60
70593;DHT22;58294;42.988;20.338;2023-09-19T16:23:16;640.10;1433.60
70593;DHT22;58294;42.988;20.338;2023-09-19T16:25:41;640.10;1459.20
70593;DHT22;58294;42.988;20.338;2023-09-19T16:28:08;640.00;1484.80
70593;DHT22;58294;42.988;20.338;2023-09-19T16:30:33;640.00;1510.40
70593;DHT22;58294;42.988;20.338;2023-09-19T16:33:00;615.30;1536.00
70593;DHT22;58294;42.988;20.338;2023-09-19T16:35:25;615.20;1561.60
70593;DHT22;58294;42.988;20.338;2023-09-19T16:37:51;615.10;1561.60
70593;DHT22;58294;42.988;20.338;2023-09-19T16:40:17;615.10;1536.00
70593;DHT22;58294;42.988;20.338;2023-09-19T16:42:43;614.90;1510.40
70593;DHT22;58294;42.988;20.338;2023-09-19T16:45:09;614.80;1561.60
70593;DHT22;58294;42.988;20.338;2023-09-19T16:47:38;614.80;1536.00